^^
Station Historical Data
Daily Summary for January 17, 2018 Units:  Metric    English   Both
« Previous Day
Next Day »
Daily Weekly Monthly Yearly Custom
  High: Low: Average:
Temperature: -17.8 °C 19.7 °C 26.3 °C
Dew Point: -17.8 °C 5.3 °C 9.4 °C
Humidity: Humidity% 17% 37%
Wind Speed: 0km/h 0km/h 2.9km/h
Wind Gust: 0km/h - -
Wind- - SSE
Pressure: 0 hPa 1002.3 hPa -
Precipitation: 0 mm    
Historical Graphs
 
 
Tabular Data for January 17, 2018
Time Temperature Dew Point Pressure Wind Wind Speed Wind Gust Humidity Rainfall Rate (Hourly) solar Conditions
-17.8 °C -17.8 °C 0 hPa Calm     Humidity% 0 mm SolarRadiationWatts/m^2 W/m2 Conditions
00:03 24.2 °C 10.1 °C 1007.3 hPa East 1.4 km/h 6.4 km/h 41% 0 mm 0.0 W/m2
00:08 24.2 °C 10.5 °C 1007.3 hPa Calm   6.4 km/h 42% 0 mm 0.0 W/m2
00:13 24.2 °C 10.5 °C 1007.3 hPa Calm   3.2 km/h 42% 0 mm 0.0 W/m2
00:18 24.1 °C 11.1 °C 1007.3 hPa Calm   3.2 km/h 44% 0 mm 0.0 W/m2
00:24 23.9 °C 11.2 °C 1007 hPa Calm   1.6 km/h 45% 0 mm 0.0 W/m2
00:30 23.8 °C 10.8 °C 1007 hPa Calm     44% 0 mm 0.0 W/m2
00:35 23.7 °C 11.1 °C 1007 hPa Calm   6.4 km/h 45% 0 mm 0.0 W/m2
00:40 23.7 °C 10.7 °C 1007 hPa Calm   1.6 km/h 44% 0 mm 0.0 W/m2
00:46 23.7 °C 9.7 °C 1006.7 hPa SSW 1.4 km/h 4.8 km/h 41% 0 mm 0.0 W/m2
00:55 23.9 °C 10.2 °C 1006.7 hPa Calm   4.8 km/h 42% 0 mm 0.0 W/m2
01:00 23.9 °C 9.8 °C 1006.7 hPa Calm   6.4 km/h 41% 0 mm 0.0 W/m2
01:04 24 °C 9.9 °C 1006.3 hPa Calm   4.8 km/h 41% 0 mm 0.0 W/m2
01:05 24.1 °C 10 °C 1006.7 hPa SW 4.7 km/h 6.4 km/h 41% 0 mm 0.0 W/m2
01:10 24.1 °C 10 °C 1006.7 hPa South 1.4 km/h 3.2 km/h 41% 0 mm 0.0 W/m2
01:16 24.1 °C 10 °C 1006.3 hPa Calm   1.6 km/h 41% 0 mm 0.0 W/m2
01:22 24.1 °C 10 °C 1006.3 hPa Calm   1.6 km/h 41% 0 mm 0.0 W/m2
01:33 23.9 °C 10.2 °C 1006.3 hPa Calm   4.8 km/h 42% 0 mm 0.0 W/m2
01:39 23.9 °C 10.2 °C 1006 hPa Calm   1.6 km/h 42% 0 mm 0.0 W/m2
01:45 23.8 °C 10.1 °C 1006 hPa Calm   3.2 km/h 42% 0 mm 0.0 W/m2
01:56 23.6 °C 10.6 °C 1005.6 hPa Calm   8 km/h 44% 0 mm 0.0 W/m2
02:01 23.4 °C 10.8 °C 1005.6 hPa SW 6.4 km/h 9.7 km/h 45% 0 mm 0.0 W/m2
02:17 22.9 °C 11 °C 1005.3 hPa SSW 7.9 km/h 8 km/h 47% 0 mm 0.0 W/m2
02:22 22.8 °C 11.2 °C 1005.3 hPa Calm   9.7 km/h 48% 0 mm 0.0 W/m2
02:31 22.7 °C 11.1 °C 1005 hPa Calm   1.6 km/h 48% 0 mm 0.0 W/m2
02:36 22.6 °C 11.3 °C 1005 hPa SSW 1.4 km/h 1.6 km/h 49% 0 mm 0.0 W/m2
02:47 22.4 °C 10.8 °C 1005 hPa Calm   4.8 km/h 48% 0 mm 0.0 W/m2
02:52 22.3 °C 10.8 °C 1005 hPa Calm   3.2 km/h 48% 0 mm 0.0 W/m2
02:58 22.3 °C 10.8 °C 1005.3 hPa Calm   1.6 km/h 48% 0 mm 0.0 W/m2
03:03 22.3 °C 10.8 °C 1005 hPa Calm   1.6 km/h 48% 0 mm 0.0 W/m2
03:08 22.3 °C 10.8 °C 1005 hPa Calm   3.2 km/h 48% 0 mm 0.0 W/m2
03:13 22.3 °C 10.8 °C 1005 hPa Calm   4.8 km/h 48% 0 mm 0.0 W/m2
03:18 22.3 °C 10.4 °C 1005 hPa Calm   4.8 km/h 47% 0 mm 0.0 W/m2
03:25 22.3 °C 10.4 °C 1005 hPa Calm   1.6 km/h 47% 0 mm 0.0 W/m2
03:34 22.3 °C 10.4 °C 1005 hPa Calm     47% 0 mm 0.0 W/m2
03:39 22.3 °C 10.8 °C 1005 hPa Calm     48% 0 mm 0.0 W/m2
03:44 22.3 °C 10.8 °C 1005 hPa Calm   1.6 km/h 48% 0 mm 0.0 W/m2
03:49 22.2 °C 11.3 °C 1005 hPa Calm   3.2 km/h 50% 0 mm 0.0 W/m2
03:58 22 °C 11.4 °C 1005 hPa Calm   3.2 km/h 51% 0 mm 0.0 W/m2
04:04 21.9 °C 11.6 °C 1004.6 hPa Calm   1.6 km/h 52% 0 mm 0.0 W/m2
04:09 21.8 °C 11.5 °C 1004.6 hPa Calm   1.6 km/h 52% 0 mm 0.0 W/m2
04:14 21.7 °C 11.4 °C 1004.6 hPa Calm   3.2 km/h 52% 0 mm 0.0 W/m2
04:20 21.6 °C 11.3 °C 1004.6 hPa Calm     52% 0 mm 0.0 W/m2
04:26 21.6 °C 11.3 °C 1004.6 hPa Calm     52% 0 mm 0.0 W/m2
04:31 21.5 °C 11.5 °C 1004.6 hPa Calm   1.6 km/h 53% 0 mm 0.0 W/m2
04:37 21.4 °C 11.4 °C 1004.6 hPa Calm   1.6 km/h 53% 0 mm 0.0 W/m2
04:42 21.4 °C 11.4 °C 1004.6 hPa Calm     53% 0 mm 0.0 W/m2
04:47 21.4 °C 11.7 °C 1004.6 hPa Calm     54% 0 mm 0.0 W/m2
04:53 21.3 °C 11.6 °C 1004.6 hPa Calm     54% 0 mm 0.0 W/m2
05:02 21.3 °C 11.9 °C 1004.6 hPa Calm     55% 0 mm 0.0 W/m2
05:11 21.1 °C 12 °C 1004.6 hPa Calm   1.6 km/h 56% 0 mm 0.0 W/m2
05:16 21.1 °C 12 °C 1004.6 hPa Calm   3.2 km/h 56% 0 mm 0.0 W/m2
05:21 20.9 °C 12.1 °C 1004.6 hPa Calm   1.6 km/h 57% 0 mm 0.0 W/m2
05:32 20.7 °C 12.1 °C 1004.6 hPa ENE 1.4 km/h 1.6 km/h 58% 0 mm 0.0 W/m2
05:37 20.6 °C 11.8 °C 1004.6 hPa Calm   1.6 km/h 57% 0 mm 0.0 W/m2
05:42 20.5 °C 12 °C 1004.6 hPa Calm     58% 0 mm 0.0 W/m2
05:49 20.4 °C 11.6 °C 1004.6 hPa Calm     57% 0 mm 0.0 W/m2
05:54 20.3 °C 11.8 °C 1004.6 hPa Calm   1.6 km/h 58% 0 mm 0.0 W/m2
05:59 20.2 °C 11.7 °C 1004.6 hPa ENE 1.4 km/h 3.2 km/h 58% 0 mm 0.0 W/m2
06:09 20.1 °C 11.6 °C 1004.6 hPa Calm     58% 0 mm 0.0 W/m2
06:15 20 °C 11.5 °C 1004.6 hPa Calm     58% 0 mm 0.0 W/m2
06:20 19.9 °C 11.6 °C 1005 hPa Calm   1.6 km/h 59% 0 mm 0.0 W/m2
06:25 19.9 °C 11.6 °C 1004.6 hPa Calm     59% 0 mm 7.0 W/m2
06:30 19.9 °C 11.6 °C 1004.6 hPa ENE 1.4 km/h 1.6 km/h 59% 0 mm 7.0 W/m2
06:42 19.7 °C 11.7 °C 1005 hPa Calm   1.6 km/h 60% 0 mm 19.0 W/m2
06:48 19.7 °C 11.5 °C 1005 hPa Calm   6.4 km/h 59% 0 mm 32.0 W/m2
06:53 19.8 °C 11.6 °C 1005 hPa Calm   3.2 km/h 59% 0 mm 39.0 W/m2
06:58 19.9 °C 11.6 °C 1005.3 hPa ENE 1.4 km/h 4.8 km/h 59% 0 mm 47.0 W/m2
07:04 19.9 °C 11.6 °C 1005.3 hPa East 4.7 km/h 4.8 km/h 59% 0 mm 60.0 W/m2
07:09 20.1 °C 11.8 °C 1005.3 hPa Calm   3.2 km/h 59% 0 mm 65.0 W/m2
07:14 20.2 °C 11.9 °C 1005.3 hPa East 1.4 km/h 4.8 km/h 59% 0 mm 63.0 W/m2
07:19 20.3 °C 12 °C 1005.3 hPa Calm   3.2 km/h 59% 0 mm 63.0 W/m2
07:26 20.5 °C 12.2 °C 1005.6 hPa Calm     59% 0 mm 72.0 W/m2
07:31 20.6 °C 12.3 °C 1005.6 hPa Calm   4.8 km/h 59% 0 mm 86.0 W/m2
07:36 20.7 °C 12.1 °C 1005.6 hPa Calm   4.8 km/h 58% 0 mm 104.0 W/m2
07:41 20.8 °C 12 °C 1005.6 hPa Calm   3.2 km/h 57% 0 mm 98.0 W/m2
07:46 20.9 °C 12.3 °C 1005.6 hPa Calm   4.8 km/h 58% 0 mm 90.0 W/m2
07:51 21.1 °C 12.2 °C 1005.6 hPa Calm   3.2 km/h 57% 0 mm 199.0 W/m2
07:57 21.4 °C 11.7 °C 1005.6 hPa Calm   1.6 km/h 54% 0 mm 281.0 W/m2
08:03 21.7 °C 12.3 °C 1005.6 hPa Calm     55% 0 mm 107.0 W/m2
08:08 22 °C 12.8 °C 1005.6 hPa Calm     56% 0 mm 139.0 W/m2
08:17 22.4 °C 12.3 °C 1005.3 hPa Calm     53% 0 mm 429.0 W/m2
08:22 22.9 °C 11 °C 1005.6 hPa Calm     47% 0 mm 239.0 W/m2
08:27 23.3 °C 11.4 °C 1005.3 hPa Calm   1.6 km/h 47% 0 mm 149.0 W/m2
08:32 23.7 °C 11.7 °C 1005.6 hPa Calm     47% 0 mm 167.0 W/m2
08:37 23.8 °C 11.8 °C 1005.6 hPa Calm   1.6 km/h 47% 0 mm 213.0 W/m2
08:49 24.4 °C 12.4 °C 1005.6 hPa Calm     47% 0 mm 299.0 W/m2
08:54 24.8 °C 11.7 °C 1005.6 hPa Calm   1.6 km/h 44% 0 mm 283.0 W/m2
08:59 25.1 °C 11.3 °C 1005.6 hPa SW 1.4 km/h 3.2 km/h 42% 0 mm 417.0 W/m2
09:04 25.6 °C 11 °C 1005.6 hPa Calm   3.2 km/h 40% 0 mm 673.0 W/m2
09:09 26.2 °C 9.5 °C 1005.6 hPa Calm   1.6 km/h 35% 0 mm 744.0 W/m2
09:18 27.6 °C 8.9 °C 1005.6 hPa SE 4.7 km/h 12.9 km/h 31% 0 mm 807.0 W/m2
09:23 28.5 °C 9.2 °C 1005.6 hPa ESE 9.7 km/h 11.3 km/h 30% 0 mm 849.0 W/m2
09:28 28.9 °C 8.6 °C 1005.6 hPa SSE 14.3 km/h 16.1 km/h 28% 0 mm 684.0 W/m2
09:33 29.2 °C 8.8 °C 1005.6 hPa East 6.4 km/h 17.7 km/h 28% 0 mm 721.0 W/m2
09:45 29.6 °C 9.2 °C 1005.6 hPa SE 7.9 km/h 11.3 km/h 28% 0 mm 729.0 W/m2
09:50 29.7 °C 8.1 °C 1005.6 hPa SE 3.2 km/h 12.9 km/h 26% 0 mm 406.0 W/m2
09:56 29.9 °C 8.9 °C 1005.6 hPa SSE 7.9 km/h 14.5 km/h 27% 0 mm 907.0 W/m2
10:01 30.3 °C 9.2 °C 1005.6 hPa SSW 6.4 km/h 11.3 km/h 27% 0 mm 912.0 W/m2
10:06 30.6 °C 8.3 °C 1005.6 hPa SSW 7.9 km/h 17.7 km/h 25% 0 mm 951.0 W/m2
10:11 30.8 °C 8.5 °C 1005.6 hPa SSE 16.3 km/h 16.3 km/h 25% 0 mm 1009.0 W/m2
10:16 30.8 °C 7.9 °C 1005.6 hPa NE 7.9 km/h 9.7 km/h 24% 0 mm 705.0 W/m2
10:21 30.7 °C 8.4 °C 1005.6 hPa East 1.4 km/h 16.1 km/h 25% 0 mm 288.0 W/m2
10:27 30.4 °C 8.7 °C 1005.6 hPa ESE 6.4 km/h 12.9 km/h 26% 0 mm 308.0 W/m2
10:32 30.2 °C 8 °C 1005.6 hPa ESE 16.3 km/h 16.3 km/h 25% 0 mm 357.0 W/m2
10:40 30.5 °C 8.2 °C 1005.6 hPa ENE 3.2 km/h 6.4 km/h 25% 0 mm 993.0 W/m2
10:46 31.1 °C 8.1 °C 1005.6 hPa ESE 7.9 km/h 11.3 km/h 24% 0 mm 946.0 W/m2
10:51 31.3 °C 8.3 °C 1005.6 hPa Calm   1.6 km/h 24% 0 mm 979.0 W/m2
11:00 31.4 °C 8.4 °C 1005.6 hPa SSE 9.7 km/h 14.5 km/h 24% 0 mm 986.0 W/m2
11:05 31.4 °C 8.4 °C 1005.6 hPa NE 3.2 km/h 8 km/h 24% 0 mm 998.0 W/m2
11:13 32 °C 8.9 °C 1005.6 hPa North 7.9 km/h 9.7 km/h 24% 0 mm 1014.0 W/m2
11:18 32.4 °C 8.6 °C 1005.6 hPa ESE 1.4 km/h 14.5 km/h 23% 0 mm 1028.0 W/m2
11:23 32.6 °C 9.4 °C 1005.6 hPa SE 1.4 km/h 12.9 km/h 24% 0 mm 1035.0 W/m2
11:28 32.6 °C 8.1 °C 1005.6 hPa West 1.4 km/h 3.2 km/h 22% 0 mm 1065.0 W/m2
11:33 32.3 °C 8.5 °C 1005.6 hPa NE 6.4 km/h 11.3 km/h 23% 0 mm 1093.0 W/m2
11:38 32.4 °C 8.6 °C 1005.6 hPa North 3.2 km/h 9.7 km/h 23% 0 mm 1132.0 W/m2
11:43 32.5 °C 8 °C 1005.6 hPa NE 6.4 km/h 8 km/h 22% 0 mm 1188.0 W/m2
11:48 32.4 °C 8.6 °C 1005.6 hPa NNE 6.4 km/h 9.7 km/h 23% 0 mm 279.0 W/m2
11:53 32.2 °C 8.4 °C 1005.6 hPa NNE 6.4 km/h 6.4 km/h 23% 0 mm 1134.0 W/m2
11:59 32.2 °C 8.4 °C 1005.6 hPa Calm   3.2 km/h 23% 0 mm 1151.0 W/m2
12:04 32.3 °C 9.2 °C 1005.6 hPa ENE 6.4 km/h 12.9 km/h 24% 0 mm 1179.0 W/m2
12:15 33.3 °C 8 °C 1005.3 hPa NNW 11.1 km/h 16.1 km/h 21% 0 mm 1157.0 W/m2
12:25 33.2 °C 8.6 °C 1005.3 hPa NNW 6.4 km/h 12.9 km/h 22% 0 mm 1125.0 W/m2
12:30 33.2 °C 7.9 °C 1005.3 hPa NW 7.9 km/h 24.1 km/h 21% 0 mm 1146.0 W/m2
12:36 33.6 °C 7.5 °C 1005.3 hPa Calm   8 km/h 20% 0 mm 1176.0 W/m2
12:45 33.7 °C 7.6 °C 1005 hPa North 7.9 km/h 14.5 km/h 20% 0 mm 810.0 W/m2
12:50 33.7 °C 7.6 °C 1005 hPa NE 3.2 km/h 9.7 km/h 20% 0 mm 1208.0 W/m2
12:55 33.8 °C 8.4 °C 1005 hPa Calm   1.6 km/h 21% 0 mm 292.0 W/m2
13:00 33.7 °C 8.3 °C 1004.6 hPa NNE 3.2 km/h 9.7 km/h 21% 0 mm 357.0 W/m2
13:05 33.6 °C 8.3 °C 1004.6 hPa East 4.7 km/h 9.7 km/h 21% 0 mm 909.0 W/m2
13:10 33.6 °C 7.5 °C 1004.6 hPa SSE 4.7 km/h 9.7 km/h 20% 0 mm 810.0 W/m2
13:15 33.4 °C 7.4 °C 1004.6 hPa North 16.3 km/h 22.5 km/h 20% 0 mm 645.0 W/m2
13:20 33.3 °C 7.3 °C 1004.6 hPa NNE 3.2 km/h 12.9 km/h 20% 0 mm 1245.0 W/m2
13:29 34 °C 7.9 °C 1004.6 hPa ESE 3.2 km/h 12.9 km/h 20% 0 mm 937.0 W/m2
13:34 34 °C 7.1 °C 1004.6 hPa SSW 6.4 km/h 6.4 km/h 19% 0 mm 974.0 W/m2
13:40 33.7 °C 6.9 °C 1004.6 hPa Calm   11.3 km/h 19% 0 mm 1429.0 W/m2
13:45 33.4 °C 6.6 °C 1004.3 hPa Calm   4.8 km/h 19% 0 mm 515.0 W/m2
13:50 33.6 °C 6.8 °C 1004.3 hPa ESE 9.7 km/h 11.3 km/h 19% 0 mm 513.0 W/m2
13:55 33.6 °C 7.5 °C 1004.3 hPa SE 1.4 km/h 16.1 km/h 20% 0 mm 457.0 W/m2
14:00 33.6 °C 6.8 °C 1004.3 hPa ENE 1.4 km/h 4.8 km/h 19% 0 mm 557.0 W/m2
14:08 33.6 °C 6.8 °C 1003.9 hPa WNW 1.4 km/h 4.8 km/h 19% 0 mm 547.0 W/m2
14:13 33.7 °C 7.6 °C 1003.9 hPa Calm   11.3 km/h 20% 0 mm 598.0 W/m2
14:18 33.6 °C 7.5 °C 1003.9 hPa West 3.2 km/h 4.8 km/h 20% 0 mm 1341.0 W/m2
14:27 33.9 °C 7.8 °C 1003.6 hPa NNE 3.2 km/h 14.5 km/h 20% 0 mm 1308.0 W/m2
14:33 34.4 °C 6.7 °C 1003.6 hPa SW 1.4 km/h 3.2 km/h 18% 0 mm 403.0 W/m2
14:38 34.4 °C 7.4 °C 1003.6 hPa South 1.4 km/h 3.2 km/h 19% 0 mm 348.0 W/m2
14:43 34.1 °C 6.4 °C 1003.6 hPa WNW 1.4 km/h 4.8 km/h 18% 0 mm 329.0 W/m2
14:48 33.7 °C 6.1 °C 1003.6 hPa ENE 6.4 km/h 6.4 km/h 18% 0 mm 369.0 W/m2
14:53 33.6 °C 6 °C 1003.3 hPa Calm   4.8 km/h 18% 0 mm 420.0 W/m2
15:02 33.7 °C 5.3 °C 1003.3 hPa NNW 4.7 km/h 9.7 km/h 17% 0 mm 417.0 W/m2
15:13 33.7 °C 5.3 °C 1003.3 hPa Calm   3.2 km/h 17% 0 mm 366.0 W/m2
15:18 33.6 °C 6 °C 1002.9 hPa South 3.2 km/h 9.7 km/h 18% 0 mm 329.0 W/m2
15:23 33.4 °C 5.8 °C 1002.9 hPa ESE 1.4 km/h 12.9 km/h 18% 0 mm 299.0 W/m2
15:28 33.3 °C 5.8 °C 1002.9 hPa SE 1.4 km/h 8 km/h 18% 0 mm 371.0 W/m2
15:35 33.5 °C 5.9 °C 1002.9 hPa ESE 6.4 km/h 12.9 km/h 18% 0 mm 404.0 W/m2
15:40 33.5 °C 5.9 °C 1002.9 hPa Calm   16.1 km/h 18% 0 mm 355.0 W/m2
15:49 33.3 °C 6.5 °C 1002.6 hPa SSW 6.4 km/h 8 km/h 19% 0 mm 480.0 W/m2
15:54 33.2 °C 5.7 °C 1002.6 hPa SSW 3.2 km/h 9.7 km/h 18% 0 mm 547.0 W/m2
16:00 33.4 °C 5.8 °C 1002.6 hPa SSW 1.4 km/h 4.8 km/h 18% 0 mm 925.0 W/m2
16:05 33.6 °C 6 °C 1002.6 hPa Calm   4.8 km/h 18% 0 mm 617.0 W/m2
16:13 34 °C 7.1 °C 1002.3 hPa ENE 7.9 km/h 14.5 km/h 19% 0 mm 380.0 W/m2
16:18 34 °C 7.1 °C 1002.3 hPa NNE 4.7 km/h 11.3 km/h 19% 0 mm 415.0 W/m2
16:23 33.8 °C 7 °C 1002.3 hPa Calm   8 km/h 19% 0 mm 97.0 W/m2
16:30 33.3 °C 6.5 °C 1002.3 hPa SE 1.4 km/h 11.3 km/h 19% 0 mm 70.0 W/m2
16:35 33.1 °C 6.4 °C 1002.3 hPa SW 3.2 km/h 3.2 km/h 19% 0 mm 56.0 W/m2
16:44 31.3 °C 7.7 °C 1002.9 hPa West 14.3 km/h 17.7 km/h 23% 0 mm 47.0 W/m2
16:50 30.4 °C 8.2 °C 1002.9 hPa West 11.1 km/h 14.5 km/h 25% 0 mm 58.0 W/m2
16:55 29.4 °C 10 °C 1002.9 hPa West 14.3 km/h 19.3 km/h 30% 0 mm 76.0 W/m2
17:07 27.8 °C 10.1 °C 1002.6 hPa WNW 1.4 km/h 16.1 km/h 33% 0 mm 128.0 W/m2
17:12 27.6 °C 9.4 °C 1002.6 hPa West 4.7 km/h 8 km/h 32% 0 mm 134.0 W/m2
17:17 27.5 °C 10.2 °C 1002.6 hPa West 7.9 km/h 9.7 km/h 34% 0 mm 130.0 W/m2
17:22 27.2 °C 11.2 °C 1002.6 hPa WSW 1.4 km/h 8 km/h 37% 0 mm 120.0 W/m2
17:32 26.9 °C 10.6 °C 1002.6 hPa West 3.2 km/h 6.4 km/h 36% 0 mm 109.0 W/m2
17:37 27.1 °C 10.3 °C 1002.6 hPa Calm   8 km/h 35% 0 mm 109.0 W/m2
17:43 27.2 °C 10 °C 1002.6 hPa SSW 3.2 km/h 9.7 km/h 34% 0 mm 95.0 W/m2
17:48 27.3 °C 11.3 °C 1002.9 hPa South 3.2 km/h 8 km/h 37% 0 mm 70.0 W/m2
17:53 27.2 °C 11.2 °C 1002.9 hPa SSW 4.7 km/h 6.4 km/h 37% 0 mm 47.0 W/m2
17:58 27.2 °C 10.8 °C 1002.9 hPa Calm   3.2 km/h 36% 0 mm 35.0 W/m2
18:03 27.1 °C 10.3 °C 1002.9 hPa WSW 3.2 km/h 8 km/h 35% 0 mm 30.0 W/m2
18:13 27.1 °C 9.4 °C 1002.9 hPa SSE 14.3 km/h 20.9 km/h 33% 0 mm 37.0 W/m2
18:18 27.1 °C 9.9 °C 1002.9 hPa SSW 7.9 km/h 12.9 km/h 34% 0 mm 47.0 W/m2
18:23 26.9 °C 10.1 °C 1002.9 hPa WSW 6.4 km/h 16.1 km/h 35% 0 mm 51.0 W/m2
18:31 26.6 °C 9.9 °C 1002.6 hPa WSW 4.7 km/h 6.4 km/h 35% 0 mm 44.0 W/m2
18:37 26.6 °C 9.4 °C 1002.6 hPa Calm   3.2 km/h 34% 0 mm 40.0 W/m2
18:42 26.6 °C 9.4 °C 1002.6 hPa Calm   4.8 km/h 34% 0 mm 37.0 W/m2
18:47 26.6 °C 9.9 °C 1002.6 hPa North 3.2 km/h 6.4 km/h 35% 0 mm 33.0 W/m2
18:53 26.7 °C 9.5 °C 1002.9 hPa North 7.9 km/h 12.9 km/h 34% 0 mm 25.0 W/m2
18:58 26.6 °C 9.4 °C 1002.9 hPa Calm   6.4 km/h 34% 0 mm 19.0 W/m2
19:05 26.6 °C 9 °C 1003.3 hPa Calm   4.8 km/h 33% 0 mm 21.0 W/m2
19:10 26.6 °C 9.4 °C 1003.3 hPa ESE 4.7 km/h 4.8 km/h 34% 0 mm 23.0 W/m2
19:21 26.5 °C 9.8 °C 1003.3 hPa ESE 7.9 km/h 11.3 km/h 35% 0 mm 18.0 W/m2
19:26 26.4 °C 9.7 °C 1003.3 hPa Calm   8 km/h 35% 0 mm 16.0 W/m2
19:32 26.4 °C 9.3 °C 1003.6 hPa East 3.2 km/h 4.8 km/h 34% 0 mm 12.0 W/m2
19:37 26.3 °C 9.2 °C 1003.6 hPa SE 3.2 km/h 6.4 km/h 34% 0 mm 9.0 W/m2
19:42 26.3 °C 9.2 °C 1003.9 hPa SE 3.2 km/h 8 km/h 34% 0 mm 5.0 W/m2
19:47 26.2 °C 9.1 °C 1003.9 hPa ESE 3.2 km/h 8 km/h 34% 0 mm 0.0 W/m2
19:52 26.1 °C 9.4 °C 1003.9 hPa SSE 1.4 km/h 12.9 km/h 35% 0 mm 0.0 W/m2
19:59 25.8 °C 9.6 °C 1004.3 hPa South 1.4 km/h 9.7 km/h 36% 0 mm 0.0 W/m2
20:06 25.7 °C 9.5 °C 1004.6 hPa ESE 6.4 km/h 9.7 km/h 36% 0 mm 0.0 W/m2
20:12 25.6 °C 10.2 °C 1004.6 hPa SSE 6.4 km/h 22.5 km/h 38% 0 mm 0.0 W/m2
20:17 25.4 °C 10 °C 1004.6 hPa Calm   9.7 km/h 38% 0 mm 0.0 W/m2
20:22 25.3 °C 10 °C 1004.6 hPa SE 4.7 km/h 6.4 km/h 38% 0 mm 0.0 W/m2
20:28 25.2 °C 9.5 °C 1004.6 hPa Calm   9.7 km/h 37% 0 mm 0.0 W/m2
20:33 25.2 °C 9.9 °C 1004.6 hPa SSE 6.4 km/h 16.1 km/h 38% 0 mm 0.0 W/m2
20:38 25.2 °C 10.3 °C 1004.6 hPa SE 13 km/h 16.1 km/h 39% 0 mm 0.0 W/m2
20:43 25 °C 10.5 °C 1004.6 hPa Calm   16.1 km/h 40% 0 mm 0.0 W/m2
20:48 24.8 °C 10.3 °C 1004.3 hPa SSW 1.4 km/h 17.7 km/h 40% 0 mm 0.0 W/m2
20:53 24.7 °C 10.2 °C 1004.3 hPa SSE 6.4 km/h 11.3 km/h 40% 0 mm 0.0 W/m2
20:58 24.6 °C 10.5 °C 1004.3 hPa SE 11.1 km/h 12.9 km/h 41% 0 mm 0.0 W/m2
21:04 24.5 °C 10 °C 1004.3 hPa SSW 4.7 km/h 12.9 km/h 40% 0 mm 0.0 W/m2
21:09 24.4 °C 9.9 °C 1004.3 hPa South 6.4 km/h 11.3 km/h 40% 0 mm 0.0 W/m2
21:14 24.3 °C 10.2 °C 1004.3 hPa South 1.4 km/h 14.5 km/h 41% 0 mm 0.0 W/m2
21:19 24.3 °C 10.2 °C 1004.3 hPa SSW 3.2 km/h 14.5 km/h 41% 0 mm 0.0 W/m2
21:24 24.2 °C 10.1 °C 1004.3 hPa SSW 1.4 km/h 12.9 km/h 41% 0 mm 0.0 W/m2
21:29 24.1 °C 10.4 °C 1004.3 hPa SE 7.9 km/h 9.7 km/h 42% 0 mm 0.0 W/m2
21:39 23.9 °C 10.6 °C 1004.3 hPa South 3.2 km/h 8 km/h 43% 0 mm 0.0 W/m2
21:44 23.8 °C 10.1 °C 1004.6 hPa Calm   8 km/h 42% 0 mm 0.0 W/m2
21:50 23.8 °C 9.8 °C 1004.6 hPa SSE 6.4 km/h 11.3 km/h 41% 0 mm 0.0 W/m2
21:55 23.9 °C 9.1 °C 1004.6 hPa ENE 6.4 km/h 12.9 km/h 39% 0 mm 0.0 W/m2
22:00 24.1 °C 8.9 °C 1004.6 hPa East 9.7 km/h 19.3 km/h 38% 0 mm 0.0 W/m2
22:06 24.4 °C 9.2 °C 1004.6 hPa East 9.7 km/h 14.5 km/h 38% 0 mm 0.0 W/m2
22:12 24.5 °C 8.9 °C 1004.6 hPa Calm   17.7 km/h 37% 0 mm 0.0 W/m2
22:17 24.6 °C 8.5 °C 1004.6 hPa SE 11.1 km/h 24.1 km/h 36% 0 mm 0.0 W/m2
22:23 24.7 °C 8.6 °C 1004.6 hPa NE 7.9 km/h 22.5 km/h 36% 0 mm 0.0 W/m2
22:34 24.8 °C 8.7 °C 1005 hPa East 1.4 km/h 8 km/h 36% 0 mm 0.0 W/m2
22:41 24.9 °C 8.4 °C 1005 hPa Calm   16.1 km/h 35% 0 mm 0.0 W/m2
22:47 25.1 °C 8.6 °C 1005 hPa ESE 1.4 km/h 4.8 km/h 35% 0 mm 0.0 W/m2
22:52 25.1 °C 8.6 °C 1005 hPa Calm   4.8 km/h 35% 0 mm 0.0 W/m2
22:57 25.1 °C 8.6 °C 1005 hPa NE 1.4 km/h 6.4 km/h 35% 0 mm 0.0 W/m2
23:03 25.1 °C 8.6 °C 1005 hPa Calm   4.8 km/h 35% 0 mm 0.0 W/m2
23:09 25.1 °C 8.6 °C 1005 hPa Calm   3.2 km/h 35% 0 mm 0.0 W/m2
23:11 25.1 °C 8.6 °C 1005 hPa Calm   4.8 km/h 35% 0 mm 0.0 W/m2
23:16 25 °C 8.5 °C 1005 hPa Calm   3.2 km/h 35% 0 mm 0.0 W/m2
23:20 25 °C 8.5 °C 1005 hPa Calm   1.6 km/h 35% 0 mm 0.0 W/m2
23:26 25 °C 8.5 °C 1005 hPa NE 1.4 km/h 6.4 km/h 35% 0 mm 0.0 W/m2
23:27 25 °C 8.5 °C 1005 hPa Calm   3.2 km/h 35% 0 mm 0.0 W/m2
23:29 25 °C 8.5 °C 1005 hPa ESE 1.4 km/h 4.8 km/h 35% 0 mm 0.0 W/m2
23:32 25.1 °C 8.6 °C 1005 hPa ENE 1.4 km/h 4.8 km/h 35% 0 mm 0.0 W/m2
23:33 25.1 °C 8.6 °C 1005 hPa Calm   6.4 km/h 35% 0 mm 0.0 W/m2
23:34 25.1 °C 8.6 °C 1005 hPa ENE 4.7 km/h 6.4 km/h 35% 0 mm 0.0 W/m2
23:39 25.2 °C 8.2 °C 1005 hPa Calm   6.4 km/h 34% 0 mm 0.0 W/m2
23:40 25.2 °C 8.2 °C 1005 hPa ESE 3.2 km/h 9.7 km/h 34% 0 mm 0.0 W/m2
23:45 25.3 °C 9.2 °C 1005 hPa ENE 9.7 km/h 14.5 km/h 36% 0 mm 0.0 W/m2
23:47 25.3 °C 9.2 °C 1005.3 hPa East 4.7 km/h 9.7 km/h 36% 0 mm 0.0 W/m2
23:51 25.3 °C 10 °C 1005.3 hPa ENE 1.4 km/h 3.2 km/h 38% 0 mm 0.0 W/m2
23:56 25.2 °C 11.4 °C 1005 hPa East 1.4 km/h 4.8 km/h 42% 0 mm 0.0 W/m2
Olympia, Windhoek, Namibia
Compliments of Weather Underground - 3.25 mb